Main page
Satellite images 10-day forecastsClimateMarine weather Cyclones Lightning AirportsFAQ Newsletter About
Weather : Europe Africa North America South America Asia Australia-Oceania Others
Languages Contact

San Fernando, Argentina

San Fernando Airport

latitude: 34-27-11S, longitude: 058-35-23W, elevation: 3 m


METAR: SADF 191200Z 32006KT CAVOK 16/11 Q1009
TAF: SADF 191100Z 1912/2012 34010KT CAVOK TX27/1919Z TN15/2010Z BECMG 2000/2002 20015KT 9999 BKN020 BKN080

Time: 09:35 (12:35 UTC)

Current weather observation

The report was made 35 minutes ago, at 12:00 UTC
Wind 6 kt from the Northwest
Temperature 16°C
Humidity 72%
Pressure 1009 hPa
Visibility 10 km or more
no clouds below 1500 m and no cumulonimbus

Change units

Forecast

The report was made 1 hour and 35 minutes ago, at 11:00 UTC
Forecast valid from 19 at 12 UTC to 20 at 12 UTC
Wind 10 kt from the North/Northwest
Visibility 10 km or more
no clouds below 1500 m and no cumulonimbus
Becoming
from 20 at 00 UTC to 20 at 02 UTC
Wind 15 kt from the South/Southwest
Visibility 10 km or more
Broken clouds at a height of 2000 ft
Broken clouds at a height of 8000 ft
The information on this site is subject to a disclaimer
Weather : Europe Africa North America South America Asia Australia-Oceania Others
Satellite images 10-day forecastsClimateMarine weather Cyclones Lightning AirportsFAQ Languages Contact Newsletter About